Harrington, Washington
Current Conditions -  °F | °C
As of 2:58 AM on Saturday 25 Oct 2014 (Local Time) from KSKA Reporting Station
Few Clouds Few Clouds  
Wind Chill: 39°   Ceiling: Unl
Heat Index: 44°   Visibility: 10mi
Dew Point: 42°   Wind: 9mph
Humidity: 91%   Direction: 40°NE
Pressure: 29.83"   Gusts: NA
Location:  47.48°N, 118.25°W
Report Text: KSKA 250958Z AUTO 04008KT 10SM FEW190 07/05 A2983 RMK AO2 SLP106 T00660053
Loading
Personal Weather Stations






























Interactive Weather Map
Tropical Storm Tracking
New forecast layout! Learn more

10-Day Weather Forecast

Advertisements
Track Severe Weather on mobile